createdAt,value
2022-08-27T00:02:12.701Z,19.97
2022-08-27T00:05:18.543Z,19.99
2022-08-27T00:08:25.505Z,20.06
2022-08-27T00:11:28.768Z,20.07
2022-08-27T00:14:33.942Z,20.00
2022-08-27T00:17:37.635Z,20.03
2022-08-27T00:20:40.611Z,19.96
2022-08-27T00:23:45.238Z,19.98
2022-08-27T00:26:48.207Z,20.00
2022-08-27T00:29:51.262Z,19.96
2022-08-27T00:32:54.225Z,19.95
2022-08-27T00:35:57.355Z,19.96
2022-08-27T00:39:01.945Z,19.95
2022-08-27T00:42:06.346Z,19.98
2022-08-27T00:45:10.255Z,20.00
2022-08-27T00:48:18.201Z,20.04
2022-08-27T00:51:22.292Z,20.03
2022-08-27T00:54:28.218Z,20.06
2022-08-27T00:57:32.123Z,20.03
2022-08-27T01:00:36.224Z,20.08
2022-08-27T01:03:40.210Z,20.02
2022-08-27T01:06:43.325Z,20.01
2022-08-27T01:09:50.028Z,20.07
2022-08-27T01:12:54.553Z,20.07
2022-08-27T01:15:59.053Z,20.09
2022-08-27T01:19:02.800Z,20.08
2022-08-27T01:22:21.743Z,20.12
2022-08-27T01:25:28.526Z,20.18
2022-08-27T01:28:36.695Z,20.16
2022-08-27T01:31:40.835Z,20.17
2022-08-27T01:34:44.588Z,20.21
2022-08-27T01:37:52.239Z,20.21
2022-08-27T01:40:56.856Z,20.23
2022-08-27T01:44:00.069Z,20.25
2022-08-27T01:47:03.347Z,20.23
2022-08-27T01:50:10.683Z,20.27
2022-08-27T01:53:19.197Z,20.27
2022-08-27T01:56:23.495Z,20.30
2022-08-27T01:59:39.606Z,20.31
2022-08-27T02:02:44.462Z,20.32
2022-08-27T02:05:49.800Z,20.28
2022-08-27T02:08:52.812Z,20.29
2022-08-27T02:11:57.492Z,20.29
2022-08-27T02:15:00.785Z,20.27
2022-08-27T02:18:06.408Z,20.28
2022-08-27T02:21:09.382Z,20.32
2022-08-27T02:24:12.398Z,20.30
2022-08-27T02:27:16.739Z,20.30
2022-08-27T02:30:23.841Z,20.22
2022-08-27T02:33:27.240Z,20.22
2022-08-27T02:36:30.483Z,20.21
2022-08-27T02:39:33.576Z,20.22
2022-08-27T02:42:38.030Z,20.21
2022-08-27T02:45:40.986Z,20.21
2022-08-27T02:48:44.841Z,20.23
2022-08-27T02:51:47.820Z,20.25
2022-08-27T02:54:53.551Z,20.30
2022-08-27T02:57:58.587Z,20.35
2022-08-27T03:01:02.198Z,20.43
2022-08-27T03:04:05.457Z,20.42
2022-08-27T03:07:08.555Z,20.42
2022-08-27T03:10:20.183Z,20.39
2022-08-27T03:13:25.912Z,20.47
2022-08-27T03:16:29.404Z,20.43
2022-08-27T03:19:32.320Z,20.38
2022-08-27T03:22:35.460Z,20.35
2022-08-27T03:25:39.205Z,20.37
2022-08-27T03:28:43.889Z,20.41
2022-08-27T03:31:47.323Z,20.41
2022-08-27T03:34:50.403Z,20.40
2022-08-27T03:37:53.387Z,20.37
2022-08-27T03:40:56.659Z,20.42
2022-08-27T03:44:01.724Z,20.42
2022-08-27T03:47:05.070Z,20.44
2022-08-27T03:50:11.054Z,20.44
2022-08-27T03:53:15.123Z,20.42
2022-08-27T03:56:18.122Z,20.43
2022-08-27T03:59:22.413Z,20.37
2022-08-27T04:02:26.082Z,20.38
2022-08-27T04:05:29.123Z,20.39
2022-08-27T04:08:32.130Z,20.40
2022-08-27T04:11:35.999Z,20.36
2022-08-27T04:14:40.321Z,20.34
2022-08-27T04:17:43.783Z,20.30
2022-08-27T04:20:48.699Z,20.30
2022-08-27T04:23:51.835Z,20.28
2022-08-27T04:26:56.771Z,20.29
2022-08-27T04:30:03.043Z,20.24
2022-08-27T04:33:06.100Z,20.21
2022-08-27T04:36:11.191Z,20.21
2022-08-27T04:39:15.238Z,20.21
2022-08-27T04:42:19.367Z,20.20
2022-08-27T04:45:23.664Z,20.21
2022-08-27T04:48:27.066Z,20.25
2022-08-27T04:51:31.206Z,20.26
2022-08-27T04:54:35.140Z,20.26
2022-08-27T04:57:38.150Z,20.18
2022-08-27T05:00:49.339Z,20.19
2022-08-27T05:03:53.569Z,20.22
2022-08-27T05:06:56.802Z,20.21
2022-08-27T05:09:59.944Z,20.22
2022-08-27T05:13:02.956Z,20.25
2022-08-27T05:16:12.308Z,20.22
2022-08-27T05:19:15.534Z,20.27
2022-08-27T05:22:18.532Z,20.29
2022-08-27T05:25:21.507Z,20.22
2022-08-27T05:28:27.843Z,20.18
2022-08-27T05:31:32.769Z,20.17
2022-08-27T05:34:35.827Z,20.11
2022-08-27T05:37:39.082Z,20.13
2022-08-27T05:40:43.784Z,20.10
2022-08-27T05:43:50.164Z,20.15
2022-08-27T05:46:54.980Z,20.12
2022-08-27T05:49:58.072Z,20.16
2022-08-27T05:53:01.020Z,20.19
2022-08-27T05:56:04.668Z,20.29
2022-08-27T05:59:25.967Z,20.31
2022-08-27T06:02:30.937Z,20.29
2022-08-27T06:05:34.030Z,20.24
2022-08-27T06:08:37.929Z,20.24
2022-08-27T06:11:40.941Z,20.27
2022-08-27T06:14:43.965Z,20.17
2022-08-27T06:17:48.333Z,20.21
2022-08-27T06:20:51.322Z,20.24
2022-08-27T06:23:55.823Z,20.29
2022-08-27T06:26:59.456Z,20.30
2022-08-27T06:30:05.781Z,20.28
2022-08-27T06:33:10.312Z,20.24
2022-08-27T06:36:18.267Z,20.28
2022-08-27T06:39:21.627Z,20.20
2022-08-27T06:42:24.598Z,20.30
2022-08-27T06:45:29.174Z,20.24
2022-08-27T06:48:33.536Z,20.31
2022-08-27T06:51:39.047Z,20.30
2022-08-27T06:54:42.034Z,20.34
2022-08-27T06:57:44.996Z,20.38
2022-08-27T07:00:49.096Z,20.30
2022-08-27T07:03:57.254Z,20.35
2022-08-27T07:07:00.314Z,20.42
2022-08-27T07:10:04.176Z,20.43
2022-08-27T07:13:07.435Z,20.35
2022-08-27T07:16:13.783Z,20.45
2022-08-27T07:19:18.389Z,20.41
2022-08-27T07:22:21.370Z,20.44
2022-08-27T07:25:24.334Z,20.43
2022-08-27T07:28:28.814Z,20.44
2022-08-27T07:31:32.134Z,20.37
2022-08-27T07:34:36.540Z,20.40
2022-08-27T07:37:41.863Z,20.51
2022-08-27T07:40:45.111Z,20.58
2022-08-27T07:44:06.103Z,20.58
2022-08-27T07:47:09.444Z,20.55
2022-08-27T07:50:14.884Z,20.55
2022-08-27T07:53:18.095Z,20.58
2022-08-27T07:56:22.120Z,20.56
2022-08-27T07:59:27.176Z,20.56
2022-08-27T08:02:31.499Z,20.53
2022-08-27T08:05:36.022Z,20.57
2022-08-27T08:08:41.157Z,20.66
2022-08-27T08:11:47.052Z,20.68
2022-08-27T08:14:50.258Z,20.65
2022-08-27T08:17:53.263Z,20.61
2022-08-27T08:21:02.041Z,20.59
2022-08-27T08:24:05.554Z,20.59
2022-08-27T08:27:08.709Z,20.62
2022-08-27T08:30:13.166Z,20.67
2022-08-27T08:33:17.107Z,20.62
2022-08-27T08:36:21.478Z,20.64
2022-08-27T08:39:25.362Z,20.66
2022-08-27T08:42:35.833Z,20.64
2022-08-27T08:45:42.224Z,20.62
2022-08-27T08:48:50.431Z,20.65
2022-08-27T08:51:58.516Z,20.74
2022-08-27T08:55:14.305Z,20.76
2022-08-27T08:58:27.826Z,20.82
2022-08-27T09:01:33.429Z,20.94
2022-08-27T09:04:36.919Z,20.91
2022-08-27T09:07:49.638Z,21.02
2022-08-27T09:11:00.953Z,20.95
2022-08-27T09:14:13.196Z,20.96
2022-08-27T09:17:16.373Z,21.14
2022-08-27T09:20:25.580Z,21.13
2022-08-27T09:23:38.715Z,21.07
2022-08-27T09:26:44.820Z,21.09
2022-08-27T09:29:51.655Z,21.15
2022-08-27T09:32:56.797Z,21.20
2022-08-27T09:36:04.883Z,21.28
2022-08-27T09:39:09.851Z,21.28
2022-08-27T09:42:43.126Z,21.27
2022-08-27T09:45:51.808Z,21.17
2022-08-27T09:48:57.046Z,21.22
2022-08-27T09:52:00.066Z,21.30
2022-08-27T09:55:05.431Z,21.22
2022-08-27T09:58:18.609Z,21.19
2022-08-27T10:01:25.207Z,21.38
2022-08-27T10:04:50.130Z,21.46
2022-08-27T10:08:01.029Z,21.53
2022-08-27T10:11:11.606Z,21.67
2022-08-27T10:14:20.222Z,21.62
2022-08-27T10:17:34.312Z,21.66
2022-08-27T10:21:04.869Z,21.61
2022-08-27T10:24:25.537Z,21.52
2022-08-27T10:27:40.429Z,21.75
2022-08-27T10:31:08.232Z,21.75
2022-08-27T10:34:32.387Z,21.74
2022-08-27T10:37:48.753Z,21.67
2022-08-27T10:40:58.134Z,21.80
2022-08-27T10:44:23.980Z,21.88
2022-08-27T10:47:44.890Z,21.91
2022-08-27T10:50:54.637Z,21.99
2022-08-27T10:54:07.347Z,22.19
2022-08-27T10:57:35.180Z,22.14
2022-08-27T11:00:48.856Z,22.07
2022-08-27T11:03:56.254Z,22.19
2022-08-27T11:07:08.330Z,22.17
2022-08-27T11:10:20.952Z,22.19
2022-08-27T11:13:32.384Z,22.03
2022-08-27T11:16:45.617Z,22.11
2022-08-27T11:19:56.439Z,22.09
2022-08-27T11:23:05.903Z,22.07
2022-08-27T11:26:09.396Z,22.09
2022-08-27T11:29:19.790Z,22.24
2022-08-27T11:32:31.283Z,22.30
2022-08-27T11:35:52.629Z,22.42
2022-08-27T11:39:01.752Z,22.65
2022-08-27T11:42:10.871Z,22.56
2022-08-27T11:45:20.716Z,22.71
2022-08-27T11:48:28.662Z,23.13
2022-08-27T11:51:35.023Z,23.29
2022-08-27T11:54:48.055Z,23.44
2022-08-27T11:58:12.177Z,23.37
2022-08-27T12:01:26.878Z,23.34
2022-08-27T12:04:40.198Z,23.33
2022-08-27T12:07:47.306Z,23.36
2022-08-27T12:11:06.448Z,23.28
2022-08-27T12:14:25.457Z,23.60
2022-08-27T12:17:39.871Z,23.60
2022-08-27T12:20:58.311Z,23.55
2022-08-27T12:24:20.503Z,23.66
2022-08-27T12:27:34.320Z,23.64
2022-08-27T12:30:41.309Z,23.54
2022-08-27T12:33:48.495Z,23.42
2022-08-27T12:36:55.902Z,23.47
2022-08-27T12:40:06.917Z,23.64
2022-08-27T12:43:14.512Z,23.90
2022-08-27T12:46:20.234Z,24.49
2022-08-27T12:49:37.120Z,24.57
2022-08-27T12:53:13.639Z,24.38
2022-08-27T12:56:47.395Z,24.22
2022-08-27T13:00:07.463Z,24.14
2022-08-27T13:03:26.103Z,23.97
2022-08-27T13:06:33.187Z,23.94
2022-08-27T13:09:40.264Z,23.93
2022-08-27T13:12:45.186Z,24.08
2022-08-27T13:15:52.637Z,24.15
2022-08-27T13:18:56.195Z,24.09
2022-08-27T13:22:01.401Z,24.24
2022-08-27T13:25:07.698Z,24.37
2022-08-27T13:28:15.052Z,24.57
2022-08-27T13:31:18.524Z,24.38
2022-08-27T13:34:25.565Z,24.12
2022-08-27T13:37:35.100Z,24.19
2022-08-27T13:40:55.453Z,24.59
2022-08-27T13:43:59.839Z,24.68
2022-08-27T13:47:07.297Z,24.74
2022-08-27T13:50:25.507Z,25.31
2022-08-27T13:53:49.675Z,24.87
2022-08-27T13:57:08.458Z,25.19
2022-08-27T14:00:16.205Z,24.89
2022-08-27T14:03:32.418Z,25.21
2022-08-27T14:06:43.196Z,25.28
2022-08-27T14:09:54.618Z,25.43
2022-08-27T14:13:02.472Z,25.22
2022-08-27T14:16:16.827Z,25.13
2022-08-27T14:19:28.921Z,24.80
2022-08-27T14:22:36.466Z,24.79
2022-08-27T14:25:41.077Z,24.51
2022-08-27T14:28:46.545Z,24.36
2022-08-27T14:31:49.765Z,24.28
2022-08-27T14:34:53.278Z,24.55
2022-08-27T14:37:56.723Z,24.76
2022-08-27T14:40:59.861Z,24.89
2022-08-27T14:44:05.369Z,24.82
2022-08-27T14:47:10.738Z,24.58
2022-08-27T14:50:14.346Z,24.45
2022-08-27T14:53:19.776Z,24.43
2022-08-27T14:56:24.610Z,24.42
2022-08-27T14:59:29.262Z,24.14
2022-08-27T15:02:33.027Z,24.13
2022-08-27T15:05:36.717Z,24.10
2022-08-27T15:08:39.766Z,23.97
2022-08-27T15:11:46.909Z,23.84
2022-08-27T15:14:51.213Z,23.86
2022-08-27T15:17:54.266Z,23.79
2022-08-27T15:20:57.326Z,23.82
2022-08-27T15:24:03.669Z,23.69
2022-08-27T15:27:07.199Z,23.62
2022-08-27T15:30:15.448Z,23.64
2022-08-27T15:33:20.389Z,23.67
2022-08-27T15:36:23.458Z,23.65
2022-08-27T15:39:26.491Z,23.47
2022-08-27T15:42:29.743Z,23.47
2022-08-27T15:45:34.180Z,23.43
2022-08-27T15:48:37.667Z,23.42
2022-08-27T15:51:40.782Z,23.30
2022-08-27T15:54:44.622Z,23.25
2022-08-27T15:57:48.177Z,23.25
2022-08-27T16:01:01.652Z,23.19
2022-08-27T16:04:06.918Z,23.13
2022-08-27T16:07:09.923Z,22.99
2022-08-27T16:10:15.336Z,22.94
2022-08-27T16:13:19.624Z,22.81
2022-08-27T16:16:27.438Z,22.79
2022-08-27T16:19:31.027Z,22.73
2022-08-27T16:22:35.708Z,22.60
2022-08-27T16:25:38.676Z,22.58
2022-08-27T16:28:41.652Z,22.54
2022-08-27T16:31:46.035Z,22.48
2022-08-27T16:34:55.565Z,22.42
2022-08-27T16:37:59.350Z,22.42
2022-08-27T16:41:03.601Z,22.40
2022-08-27T16:44:07.692Z,22.33
2022-08-27T16:47:12.642Z,22.35
2022-08-27T16:50:33.759Z,22.29
2022-08-27T16:53:41.545Z,22.34
2022-08-27T16:56:46.278Z,22.32
2022-08-27T16:59:49.460Z,22.27
2022-08-27T17:02:54.194Z,22.08
2022-08-27T17:05:58.704Z,22.03
2022-08-27T17:09:05.925Z,22.11
2022-08-27T17:12:09.440Z,21.94
2022-08-27T17:15:14.464Z,21.89
2022-08-27T17:18:21.037Z,21.74
2022-08-27T17:21:29.132Z,21.65
2022-08-27T17:24:33.079Z,21.63
2022-08-27T17:27:36.112Z,21.54
2022-08-27T17:30:39.477Z,21.45
2022-08-27T17:33:48.744Z,21.40
2022-08-27T17:36:52.531Z,21.32
2022-08-27T17:39:55.767Z,21.32
2022-08-27T17:42:58.832Z,21.28
2022-08-27T17:46:01.902Z,21.23
2022-08-27T17:49:06.282Z,21.20
2022-08-27T17:52:15.092Z,21.25
2022-08-27T17:55:18.650Z,21.20
2022-08-27T17:58:22.366Z,21.13
2022-08-27T18:01:32.264Z,21.07
2022-08-27T18:04:37.777Z,21.17
2022-08-27T18:07:41.871Z,21.10
2022-08-27T18:10:45.468Z,21.08
2022-08-27T18:13:53.368Z,21.02
2022-08-27T18:16:56.373Z,21.05
2022-08-27T18:20:01.578Z,21.05
2022-08-27T18:23:05.426Z,21.00
2022-08-27T18:26:14.574Z,20.95
2022-08-27T18:29:18.141Z,20.86
2022-08-27T18:32:21.201Z,20.85
2022-08-27T18:35:30.269Z,20.85
2022-08-27T18:38:33.956Z,20.79
2022-08-27T18:41:36.962Z,20.73
2022-08-27T18:44:43.672Z,20.76
2022-08-27T18:47:46.964Z,20.73
2022-08-27T18:50:58.731Z,20.70
2022-08-27T18:54:02.144Z,20.69
2022-08-27T18:57:05.236Z,20.65
2022-08-27T19:00:12.855Z,20.64
2022-08-27T19:03:23.354Z,20.65
2022-08-27T19:06:27.761Z,20.62
2022-08-27T19:09:30.859Z,20.56
2022-08-27T19:12:34.176Z,20.52
2022-08-27T19:15:43.864Z,20.47
2022-08-27T19:18:47.640Z,20.51
2022-08-27T19:21:53.198Z,20.50
2022-08-27T19:24:56.170Z,20.42
2022-08-27T19:27:59.430Z,20.38
2022-08-27T19:31:02.390Z,20.36
2022-08-27T19:34:06.672Z,20.41
2022-08-27T19:37:18.649Z,20.38
2022-08-27T19:40:22.998Z,20.36
2022-08-27T19:43:26.607Z,20.36
2022-08-27T19:46:29.945Z,20.39
2022-08-27T19:49:33.352Z,20.36
2022-08-27T19:52:37.654Z,20.37
2022-08-27T19:55:45.077Z,20.38
2022-08-27T19:58:48.541Z,20.33
2022-08-27T20:01:52.724Z,20.30
2022-08-27T20:05:16.321Z,20.31
2022-08-27T20:08:21.122Z,20.36
2022-08-27T20:11:24.244Z,20.36
2022-08-27T20:14:28.072Z,20.27
2022-08-27T20:17:33.995Z,20.20
2022-08-27T20:20:37.443Z,20.24
2022-08-27T20:23:42.320Z,20.25
2022-08-27T20:26:45.973Z,20.25
2022-08-27T20:29:49.160Z,20.24
2022-08-27T20:32:52.291Z,20.23
2022-08-27T20:35:56.487Z,20.18
2022-08-27T20:39:01.607Z,20.19
2022-08-27T20:42:05.891Z,20.22
2022-08-27T20:45:12.341Z,20.16
2022-08-27T20:48:15.856Z,20.15
2022-08-27T20:51:19.283Z,20.17
2022-08-27T20:54:24.177Z,20.20
2022-08-27T20:57:27.282Z,20.18
2022-08-27T21:00:30.041Z,20.14
2022-08-27T21:03:33.087Z,20.14
2022-08-27T21:06:36.698Z,20.19
2022-08-27T21:09:55.553Z,20.15
2022-08-27T21:13:04.522Z,20.16
2022-08-27T21:16:08.805Z,20.10
2022-08-27T21:19:11.932Z,20.11
2022-08-27T21:22:15.192Z,20.14
2022-08-27T21:25:19.828Z,20.10
2022-08-27T21:28:23.162Z,20.12
2022-08-27T21:31:26.509Z,20.15
2022-08-27T21:34:31.013Z,20.11
2022-08-27T21:37:36.343Z,20.18
2022-08-27T21:40:40.793Z,20.20
2022-08-27T21:43:43.904Z,20.13
2022-08-27T21:46:47.570Z,20.13
2022-08-27T21:49:50.640Z,19.98
2022-08-27T21:52:54.074Z,19.98
2022-08-27T21:55:58.484Z,20.03
2022-08-27T21:59:01.455Z,20.00
2022-08-27T22:02:13.721Z,19.98
2022-08-27T22:05:27.837Z,19.98
2022-08-27T22:08:30.941Z,19.90
2022-08-27T22:11:36.078Z,19.92
2022-08-27T22:14:41.068Z,19.96
2022-08-27T22:17:46.248Z,19.94
2022-08-27T22:20:53.242Z,19.93
2022-08-27T22:23:56.492Z,19.93
2022-08-27T22:27:00.789Z,19.91
2022-08-27T22:30:09.606Z,19.91
2022-08-27T22:33:14.608Z,19.92
2022-08-27T22:36:17.799Z,19.84
2022-08-27T22:39:21.293Z,19.86
2022-08-27T22:42:28.461Z,19.83
2022-08-27T22:45:32.265Z,19.77
2022-08-27T22:48:35.287Z,19.69
2022-08-27T22:51:38.350Z,19.66
2022-08-27T22:54:41.488Z,19.64
2022-08-27T22:57:46.416Z,19.68
2022-08-27T23:00:52.747Z,19.58
2022-08-27T23:03:56.565Z,19.57
2022-08-27T23:07:01.097Z,19.58
2022-08-27T23:10:06.038Z,19.56
2022-08-27T23:13:11.115Z,19.48
2022-08-27T23:16:15.709Z,19.45
2022-08-27T23:19:19.389Z,19.38
2022-08-27T23:22:22.764Z,19.38
2022-08-27T23:25:45.010Z,19.31
2022-08-27T23:28:49.506Z,19.25
2022-08-27T23:31:53.373Z,19.21
2022-08-27T23:34:56.963Z,19.17
2022-08-27T23:38:00.224Z,19.18
2022-08-27T23:41:03.235Z,19.11
2022-08-27T23:44:07.527Z,19.18
2022-08-27T23:47:11.112Z,19.18
2022-08-27T23:50:15.643Z,19.17
2022-08-27T23:53:18.756Z,19.15
2022-08-27T23:56:21.850Z,19.20
2022-08-27T23:59:34.251Z,19.24
